Ana Sayfa
METAR-TAF:

METAR-TAF

Havaalanları :

Bükreş, Romanya

Henri Coandă Uluslararası Havalimanı

Enlem: 44-33N, Boylam: 026-06E, yükseklik: 95 m

Güncel hava durumu gözlemi

Rapor saat 07:30 UTC de 16 dakika önce yapıldı.
Rüzgar kuzeybatıdan 10 kt
Sıcaklık 18°C
Nem 49%
Basınç 1022 hPa
Görüş mesafesi 10 km veya daha fazla
1500 m altında bulut yok ve kümülonimbus yok

METAR: LROP 210730Z 31010KT CAVOK 18/07 Q1022 NOSIG

Saat: 10:46 (07:46 UTC)

Tahmin

Rapor saat 05:00 UTC de 2 saat ve 46 dakika önce yapıldı.
Ayın 21'si saat 06 UTC'den ayın 22'si saat 06 UTC'ye kadar geçerli Tahmin
Rüzgar değişken yönden 4 kt
Görüş mesafesi 10 km veya daha fazla
1500 m altında bulut yok ve kümülonimbus yok
Dönüşüyor
ayın 21'si saat 07 UTC'den ayın 21'si saat 09 UTC'ye kadar
Rüzgar batı/güneybatıdan 15 kt
Dönüşüyor
ayın 21'si saat 19 UTC'den ayın 21'si saat 21 UTC'ye kadar
Rüzgar batıdan 5 kt

TAF: LROP 210500Z 2106/2206 VRB04KT CAVOK BECMG 2107/2109 25015KT BECMG 2119/2121 26005KT

4.000'den fazla havaalanı için hava durumu gözlemleri ve tahminleri (METAR ve TAF raporları).

Kullanılabilir istasyonlar harita üzerinde sarı ve kırmızı noktalarla gösterilir.

İstasyonun adını görmek için fareyi noktanın üzerinde gezdirin.

Sonrasında hava gözlem ve tahminlerini görmek için tıklayın.

Haritayı değiştirmek için: yaklaştırmak için siyah artı işaretli yeşil düğmeye ve uzaklaştırmak için de eksi işaretli düğmeye hızla tıklayın; bitişik haritalar için yeşil okları kullanın.


METAR-TAF: